ADDS METAR Data INFO
IDs: Format: Raw Decoded Include TAF

Data at: 0210 UTC 14 Dec 2017

KAKQ 140154Z AUTO VRB03KT 10SM OVC075 01/M09 A2978 RMK AO2 PRESFR SLP087 T00111089 $
KAKQ 140054Z AUTO VRB03KT 10SM OVC085 01/M09 A2977 RMK AO2 SLP086 T00061094 $
KAKQ 132354Z AUTO 00000KT 10SM CLR M01/M09 A2981 RMK AO2 SLP099 T10111094 10028 21022 56010 $
KAKQ 132254Z AUTO 00000KT 10SM CLR M01/M09 A2982 RMK AO2 SLP101 T10061094 $
KAKQ 132154Z AUTO 22005KT 10SM CLR 02/M12 A2983 RMK AO2 SLP104 T00171122 TSNO $
KAKQ 132054Z AUTO 23007KT 10SM CLR 02/M13 A2984 RMK AO2 SLP109 T00221128 56013 $
KAKQ 131954Z AUTO 28010KT 10SM CLR 02/M13 A2985 RMK AO2 SLP109 T00221133 $
KAKQ 131854Z AUTO 24009KT 10SM CLR 03/M13 A2985 RMK AO2 SLP111 T00281133 $
KAKQ 131754Z AUTO 26010KT 10SM CLR 02/M13 A2988 RMK AO2 SLP121 T00171133 10017 21050 56020 $
KAKQ 131654Z AUTO 26012G20KT 10SM CLR 01/M13 A2989 RMK AO2 SLP125 T00061133 $
KAKQ 131554Z AUTO 26011G19KT 10SM CLR 00/M14 A2993 RMK AO2 SLP137 T00001139 $
KAKQ 131454Z AUTO 25012G16KT 10SM CLR M01/M14 A2994 RMK AO2 SLP141 T10111144 50013 $
KAKQ 131354Z AUTO 27007KT 230V290 10SM CLR M03/M14 A2994 RMK AO2 SLP142 T10281139 $
KAKQ 131254Z AUTO 25007KT 10SM CLR M04/M13 A2993 RMK AO2 SLP137 T10441128 $
KAKQ 131154Z AUTO 25006KT 10SM CLR M05/M13 A2990 RMK AO2 SLP128 T10501128 11022 21056 53026 $
KAKQ 131054Z AUTO 25006KT 10SM CLR M05/M13 A2987 RMK AO2 SLP117 T10501128 TSNO $
KAKQ 130954Z AUTO 00000KT 10SM CLR M06/M13 A2984 RMK AO2 SLP106 T10561128 TSNO $
KAKQ 130854Z AUTO 00000KT 10SM CLR M06/M12 A2982 RMK AO2 SLP101 T10561122 51014 TSNO $
KAKQ 130754Z AUTO VRB03KT 10SM CLR M03/M15 A2982 RMK AO2 SLP100 T10331150 TSNO $
KAKQ 130654Z AUTO VRB04KT 10SM CLR M03/M16 A2980 RMK AO2 SLP093 T10281156 TSNO $
KAKQ 130554Z AUTO VRB06KT 10SM CLR M02/M16 A2978 RMK AO2 SLP087 60000 T10221156 10072 21022 51026 TSNO $
KAKQ 130454Z AUTO 30011G19KT 10SM CLR M02/M15 A2976 RMK AO2 SLP081 T10171150 401001017 TSNO $
KAKQ 130354Z AUTO 33009G19KT 10SM OVC065 00/M13 A2974 RMK AO2 SLP072 T00001133 TSNO $
KAKQ 130254Z AUTO 30012G20KT 270V350 10SM SCT060 02/M12 A2970 RMK AO2 SLP061 60000 T00171117 51034 TSNO $
KAKQ 130154Z AUTO 33008G15KT 300V010 10SM SCT060 SCT075 BKN095 03/M04 A2967 RMK AO2 SLP050 T00281044 TSNO $
KAKQ 130054Z AUTO 32008G23KT 280V350 10SM BKN045 BKN065 OVC095 04/M06 A2965 RMK AO2 RAB15E34 SLP041 P0000 T00441056 TSNO $
KAKQ 122354Z AUTO VRB06KT 10SM OVC065 07/M03 A2960 RMK AO2 SLP025 T00721028 10100 20072 53017 TSNO $
KAKQ 122254Z AUTO 27005KT 10SM OVC095 08/M02 A2958 RMK AO2 SLP018 T00831022 TSNO $
KAKQ 122154Z AUTO 28009KT 10SM OVC080 09/M02 A2957 RMK AO2 SLP013 T00941017 TSNO
KAKQ 122054Z AUTO 24004KT 10SM OVC070 09/02 A2955 RMK AO2 SLP009 T00940017 55002 TSNO $
KAKQ 121954Z AUTO 24004KT 10SM OVC095 10/03 A2954 RMK AO2 SLP006 T01000028 $
KAKQ 121854Z AUTO 26005KT 10SM BKN060 OVC085 10/03 A2955 RMK AO2 SLP009 T01000028
KAKQ 121754Z AUTO 26007KT 230V300 10SM CLR 10/03 A2956 RMK AO2 SLP011 T01000028 10100 20044 58030
KAKQ 121654Z AUTO 23009KT 10SM CLR 09/03 A2960 RMK AO2 SLP024 T00890028
KAKQ 121554Z AUTO 22006KT 10SM CLR 07/02 A2963 RMK AO2 SLP033 T00720022
KAKQ 121454Z AUTO VRB05KT 10SM CLR 07/02 A2965 RMK AO2 SLP041 T00670022 56018